Time;durP1;ratioP1;P1;durP2;ratioP2;P2;SDS_P1;SDS_P2;PMS_P1;PMS_P2;Temp;Humidity;BMP_temperature;BMP_pressure;BME280_temperature;BME280_humidity;BME280_pressure;Samples;Min_cycle;Max_cycle;Signal;HPM_P1;HPM_P2
2021/05/31 00:01:52;;;;;;;0.95;0.80;;;24.00;56.20;;;;;;5124147;28;20030;-43
2021/05/31 00:04:18;;;;;;;0.80;0.68;;;24.00;56.20;;;;;;5123688;28;20056;-42
2021/05/31 00:07:11;;;;;;;0.65;0.60;;;24.00;56.20;;;;;;5123996;28;20023;-43
2021/05/31 00:09:38;;;;;;;0.93;0.80;;;23.90;56.20;;;;;;5123534;28;20051;-43
2021/05/31 00:12:06;;;;;;;0.50;0.50;;;23.90;56.20;;;;;;5123800;28;20020;-44
2021/05/31 00:14:32;;;;;;;1.10;0.80;;;23.90;56.80;;;;;;5123504;28;20027;-43
2021/05/31 00:16:58;;;;;;;0.90;0.80;;;24.00;56.20;;;;;;5123677;28;20049;-43
2021/05/31 00:19:25;;;;;;;1.45;1.05;;;23.90;56.20;;;;;;5123311;28;20035;-43
2021/05/31 00:21:51;;;;;;;0.80;0.80;;;23.90;56.20;;;;;;5123829;28;20614;-44
2021/05/31 00:24:17;;;;;;;0.95;0.90;;;23.90;56.20;;;;;;5123741;28;20023;-43
2021/05/31 00:26:43;;;;;;;0.95;0.85;;;23.90;56.20;;;;;;5121371;28;20036;-42
2021/05/31 00:29:09;;;;;;;0.80;0.80;;;23.90;56.30;;;;;;5123315;28;20118;-43
2021/05/31 00:31:36;;;;;;;0.90;0.80;;;23.90;56.30;;;;;;5123598;28;20031;-43
2021/05/31 00:34:02;;;;;;;1.08;0.90;;;23.90;56.30;;;;;;5123661;28;20061;-44
2021/05/31 00:36:28;;;;;;;1.25;0.95;;;23.80;56.30;;;;;;5123309;28;20027;-42
2021/05/31 00:38:55;;;;;;;1.10;1.00;;;23.90;56.40;;;;;;5123231;28;20069;-42
2021/05/31 00:41:21;;;;;;;0.80;0.63;;;23.80;56.40;;;;;;5122238;28;20027;-45
2021/05/31 00:43:48;;;;;;;1.00;0.90;;;23.80;56.40;;;;;;5123277;28;20047;-43
2021/05/31 00:46:14;;;;;;;1.10;0.80;;;23.80;56.40;;;;;;5123577;28;20028;-42
2021/05/31 00:48:41;;;;;;;1.10;1.00;;;23.80;56.40;;;;;;5123370;28;20028;-44
2021/05/31 00:51:08;;;;;;;0.98;0.88;;;23.80;56.40;;;;;;5123583;28;20028;-42
2021/05/31 00:53:35;;;;;;;0.80;0.80;;;23.70;56.40;;;;;;5123088;28;20023;-43
2021/05/31 00:56:02;;;;;;;1.02;0.70;;;23.70;56.40;;;;;;5123438;28;20035;-44
2021/05/31 00:58:28;;;;;;;0.93;0.82;;;23.70;56.50;;;;;;5122724;28;20027;-43
2021/05/31 01:00:55;;;;;;;0.77;0.65;;;23.70;56.50;;;;;;5122819;28;20049;-43
2021/05/31 01:03:22;;;;;;;1.00;0.90;;;23.70;56.50;;;;;;5123424;28;20124;-43
2021/05/31 01:05:49;;;;;;;1.20;1.10;;;23.70;56.50;;;;;;5123218;28;20027;-44
2021/05/31 01:08:24;;;;;;;1.02;0.93;;;23.70;56.60;;;;;;5123021;28;20031;-43
2021/05/31 01:11:14;;;;;;;0.95;0.77;;;23.70;56.70;;;;;;5123422;28;20047;-43
2021/05/31 01:13:41;;;;;;;1.83;1.10;;;23.70;56.90;;;;;;5102652;28;20020;-44
2021/05/31 01:16:24;;;;;;;1.58;1.00;;;23.70;57.00;;;;;;5102808;28;20130;-43
2021/05/31 01:18:50;;;;;;;1.10;1.00;;;23.60;56.80;;;;;;5117800;28;20024;-42
2021/05/31 01:21:25;;;;;;;1.40;1.10;;;23.60;56.90;;;;;;5120375;28;20028;-43
2021/05/31 01:24:02;;;;;;;1.40;1.30;;;23.60;57.00;;;;;;5123211;28;20019;-43
2021/05/31 01:26:28;;;;;;;1.00;0.90;;;23.60;57.60;;;;;;5121714;28;20062;-42
2021/05/31 01:29:01;;;;;;;1.20;1.10;;;23.60;56.80;;;;;;5121476;28;20035;-43
2021/05/31 01:31:33;;;;;;;1.15;0.90;;;23.60;56.70;;;;;;5121839;28;20045;-44
2021/05/31 01:33:59;;;;;;;1.98;0.90;;;23.50;56.60;;;;;;5123159;28;20520;-43
2021/05/31 01:36:25;;;;;;;1.17;1.05;;;23.50;56.80;;;;;;5122904;28;20036;-43
2021/05/31 01:38:52;;;;;;;1.20;1.10;;;23.50;56.70;;;;;;5125902;28;20024;-43
2021/05/31 01:41:18;;;;;;;1.38;1.23;;;23.50;56.60;;;;;;5126764;28;20020;-42
2021/05/31 01:43:44;;;;;;;1.20;1.10;;;23.50;56.50;;;;;;5126541;28;20582;-43
2021/05/31 01:46:12;;;;;;;1.20;1.00;;;23.50;56.60;;;;;;5126984;28;20039;-42
2021/05/31 01:48:38;;;;;;;;;;;23.50;56.60;;;;;;5127185;27;20027;-42
2021/05/31 01:51:04;;;;;;;1.00;0.90;;;23.50;56.60;;;;;;5141992;27;19947;-43
2021/05/31 01:53:30;;;;;;;1.17;1.08;;;23.40;56.40;;;;;;5125165;28;20018;-43
2021/05/31 01:55:56;;;;;;;1.10;1.00;;;23.40;56.50;;;;;;5124893;28;20103;-43
2021/05/31 01:58:22;;;;;;;1.17;0.98;;;23.40;56.40;;;;;;5125087;28;20034;-43
2021/05/31 02:00:48;;;;;;;1.15;1.05;;;23.40;56.40;;;;;;5124859;28;20028;-43
2021/05/31 02:03:15;;;;;;;1.15;1.05;;;23.30;56.40;;;;;;5124859;28;20035;-42
2021/05/31 02:05:41;;;;;;;1.52;1.00;;;23.30;56.40;;;;;;5126276;28;20058;-43
2021/05/31 02:08:07;;;;;;;1.73;1.13;;;23.30;56.40;;;;;;5126217;28;20102;-42
2021/05/31 02:10:33;;;;;;;1.23;1.00;;;23.30;56.30;;;;;;5126159;28;20034;-43
2021/05/31 02:13:00;;;;;;;0.80;0.80;;;23.30;56.40;;;;;;5125972;28;20389;-42
2021/05/31 02:15:36;;;;;;;;;;;23.30;56.50;;;;;;5125223;28;20738;-43
2021/05/31 02:18:34;;;;;;;1.02;0.90;;;23.30;56.30;;;;;;5126044;28;19914;-43
2021/05/31 02:21:07;;;;;;;1.65;1.10;;;23.30;56.40;;;;;;5124609;28;20077;-42
2021/05/31 02:23:33;;;;;;;1.08;0.90;;;23.20;56.30;;;;;;5125999;28;20032;-42
2021/05/31 02:25:59;;;;;;;1.25;0.93;;;23.20;56.20;;;;;;5124629;28;20106;-45
2021/05/31 02:28:25;;;;;;;1.13;1.02;;;23.20;56.20;;;;;;5125748;28;20039;-43
2021/05/31 02:30:52;;;;;;;1.10;1.00;;;23.20;56.40;;;;;;5124262;28;20034;-45
2021/05/31 02:33:18;;;;;;;1.95;1.00;;;23.20;56.30;;;;;;5124778;28;20066;-44
2021/05/31 02:35:44;;;;;;;1.27;1.13;;;23.20;56.40;;;;;;5124043;28;20056;-42
2021/05/31 02:38:11;;;;;;;1.35;1.10;;;23.10;56.30;;;;;;5125864;28;20042;-42
2021/05/31 02:40:37;;;;;;;0.88;0.85;;;23.10;56.20;;;;;;5125192;28;20034;-42
2021/05/31 02:43:04;;;;;;;1.83;0.90;;;23.10;56.00;;;;;;5125389;28;20027;-43
2021/05/31 02:45:31;;;;;;;1.73;1.20;;;23.10;56.10;;;;;;5125544;28;20027;-42
2021/05/31 02:47:58;;;;;;;1.20;0.98;;;23.10;55.90;;;;;;5125727;28;20652;-44
2021/05/31 02:50:27;;;;;;;1.10;0.93;;;23.10;55.80;;;;;;5124142;28;20051;-42
2021/05/31 02:52:53;;;;;;;1.17;1.00;;;23.10;55.80;;;;;;5125666;28;20070;-44
2021/05/31 02:55:22;;;;;;;1.02;0.93;;;23.00;55.80;;;;;;5125150;28;20086;-43
2021/05/31 02:57:49;;;;;;;1.02;0.93;;;23.00;55.80;;;;;;5125040;28;20043;-42
2021/05/31 03:00:16;;;;;;;1.10;1.00;;;23.00;55.90;;;;;;5125163;28;20057;-43
2021/05/31 03:02:42;;;;;;;;;;;23.00;55.90;;;;;;5125627;28;20048;-43
2021/05/31 03:05:10;;;;;;;1.40;1.00;;;23.00;55.90;;;;;;5125084;28;19915;-43
2021/05/31 03:07:37;;;;;;;1.55;1.10;;;23.00;55.90;;;;;;5125212;27;20016;-43
2021/05/31 03:10:04;;;;;;;2.42;0.88;;;22.90;56.00;;;;;;5124835;28;20027;-43
2021/05/31 03:12:30;;;;;;;1.25;1.10;;;22.90;56.00;;;;;;5125034;28;20023;-43
2021/05/31 03:14:56;;;;;;;1.48;1.35;;;22.90;55.90;;;;;;5124676;28;20038;-44
2021/05/31 03:17:23;;;;;;;2.25;1.30;;;22.90;55.90;;;;;;5123805;28;20032;-42
2021/05/31 03:19:49;;;;;;;1.75;1.25;;;22.90;56.10;;;;;;5140640;27;20028;-42
2021/05/31 03:22:16;;;;;;;1.15;0.98;;;22.90;55.90;;;;;;5124579;28;20043;-42
2021/05/31 03:24:42;;;;;;;1.50;1.02;;;22.80;56.50;;;;;;5124803;28;20109;-41
2021/05/31 03:27:08;;;;;;;1.77;1.10;;;22.80;55.90;;;;;;5124875;28;20023;-41
2021/05/31 03:29:34;;;;;;;1.75;1.00;;;22.80;56.00;;;;;;5124605;28;20023;-42
2021/05/31 03:32:01;;;;;;;1.20;1.00;;;22.70;55.90;;;;;;5124558;28;20047;-43
2021/05/31 03:34:27;;;;;;;2.33;1.13;;;22.80;56.00;;;;;;5124582;28;20059;-44
2021/05/31 03:36:53;;;;;;;1.48;1.10;;;22.80;56.10;;;;;;5124711;28;20039;-42
2021/05/31 03:39:19;;;;;;;1.40;0.98;;;22.70;56.10;;;;;;5124712;28;20015;-43
2021/05/31 03:41:45;;;;;;;1.98;1.30;;;22.70;56.00;;;;;;5124261;28;20434;-42
2021/05/31 03:44:12;;;;;;;1.10;0.95;;;22.70;56.10;;;;;;5124317;28;20022;-42
2021/05/31 03:46:38;;;;;;;1.90;1.13;;;22.60;56.10;;;;;;5124664;28;20039;-42
2021/05/31 03:49:04;;;;;;;1.58;1.30;;;22.70;56.10;;;;;;5122962;28;20044;-42
2021/05/31 03:51:30;;;;;;;1.88;1.20;;;22.60;56.10;;;;;;5124021;28;20059;-42
2021/05/31 03:53:56;;;;;;;1.65;1.20;;;22.60;56.20;;;;;;5124190;28;20121;-43
2021/05/31 03:56:23;;;;;;;1.40;1.10;;;22.60;56.20;;;;;;5124351;28;20039;-42
2021/05/31 03:58:49;;;;;;;1.90;1.40;;;22.60;56.20;;;;;;5122689;28;20058;-43
2021/05/31 04:01:16;;;;;;;2.38;1.60;;;22.50;56.20;;;;;;5123652;28;20035;-43
2021/05/31 04:03:43;;;;;;;1.45;1.23;;;22.50;56.20;;;;;;5124006;28;20055;-44
2021/05/31 04:14:12;;;;;;;1.50;1.10;;;22.50;56.30;;;;;;5138234;27;20016;-42
2021/05/31 04:16:45;;;;;;;1.45;1.17;;;22.40;56.40;;;;;;5124048;28;20040;-42
2021/05/31 04:19:12;;;;;;;1.60;1.50;;;22.40;56.40;;;;;;5139313;27;20019;-42
2021/05/31 04:21:39;;;;;;;1.35;1.25;;;22.40;56.40;;;;;;5123736;28;20028;-42
2021/05/31 04:24:06;;;;;;;1.38;1.23;;;22.40;56.50;;;;;;5123865;28;20042;-42
2021/05/31 04:26:33;;;;;;;1.60;1.17;;;22.30;56.40;;;;;;5123552;28;20027;-44
2021/05/31 04:29:00;;;;;;;1.10;1.00;;;22.30;56.40;;;;;;5123687;28;20035;-42
2021/05/31 04:31:26;;;;;;;1.30;1.17;;;22.30;56.50;;;;;;5123401;28;20074;-42
2021/05/31 04:33:52;;;;;;;2.00;1.40;;;22.30;56.50;;;;;;5123838;28;20027;-43
2021/05/31 04:36:19;;;;;;;1.67;1.30;;;22.30;56.60;;;;;;5123642;28;20035;-43
2021/05/31 04:38:45;;;;;;;2.27;1.17;;;22.30;56.60;;;;;;5123855;28;20130;-42
2021/05/31 04:41:11;;;;;;;1.70;1.40;;;22.20;56.60;;;;;;5123505;28;20028;-45
2021/05/31 04:43:37;;;;;;;1.35;1.25;;;22.20;56.60;;;;;;5123578;28;20046;-46
2021/05/31 04:46:04;;;;;;;2.08;1.23;;;22.20;56.60;;;;;;5123348;28;20111;-42
2021/05/31 04:48:33;;;;;;;1.98;1.17;;;22.20;56.60;;;;;;5123900;28;20024;-43
2021/05/31 04:51:01;;;;;;;2.10;1.50;;;22.20;56.70;;;;;;5123475;28;20059;-43
2021/05/31 04:53:28;;;;;;;3.17;1.50;;;22.10;56.70;;;;;;5123388;28;20020;-42
2021/05/31 04:55:54;;;;;;;1.50;1.30;;;22.10;56.70;;;;;;5123431;28;20036;-43
2021/05/31 04:58:21;;;;;;;2.00;1.40;;;22.10;56.70;;;;;;5123277;28;20039;-44
2021/05/31 05:00:48;;;;;;;2.08;1.50;;;22.10;56.70;;;;;;5121939;28;20048;-43
2021/05/31 05:03:14;;;;;;;2.13;1.52;;;22.10;56.80;;;;;;5122787;28;20043;-43
2021/05/31 05:05:41;;;;;;;1.95;1.40;;;22.00;56.80;;;;;;5123337;28;20028;-44
2021/05/31 05:08:07;;;;;;;1.65;1.52;;;22.00;56.90;;;;;;5123376;28;20031;-43
2021/05/31 05:10:33;;;;;;;3.83;1.50;;;22.00;56.90;;;;;;5123485;28;20020;-42
2021/05/31 05:13:00;;;;;;;1.58;1.48;;;22.00;56.90;;;;;;5123732;28;20038;-42
2021/05/31 05:15:26;;;;;;;1.60;1.40;;;22.00;56.90;;;;;;5127390;28;20039;-42
2021/05/31 05:17:53;;;;;;;1.55;1.45;;;22.00;57.00;;;;;;5127653;27;20028;-44
2021/05/31 05:20:20;;;;;;;;;;;21.90;57.00;;;;;;5126284;28;20080;-43
2021/05/31 05:22:46;;;;;;;2.08;1.48;;;21.90;57.00;;;;;;5127172;28;19929;-44
2021/05/31 05:25:13;;;;;;;2.13;1.70;;;21.90;57.00;;;;;;5127384;28;20028;-42
2021/05/31 05:27:41;;;;;;;1.77;1.40;;;21.90;57.10;;;;;;5127322;28;20032;-42
2021/05/31 05:30:09;;;;;;;1.80;1.50;;;21.90;57.10;;;;;;5126988;28;20034;-43
2021/05/31 05:32:36;;;;;;;1.80;1.58;;;21.80;57.10;;;;;;5126823;28;20024;-42
2021/05/31 05:35:39;;;;;;;;;;;21.80;57.10;;;;;;5127538;28;20031;-43
2021/05/31 05:48:45;;;;;;;1.70;1.45;;;21.70;57.30;;;;;;5126942;28;20032;-43
2021/05/31 05:51:11;;;;;;;1.92;1.60;;;21.70;57.30;;;;;;5126651;28;20024;-42
2021/05/31 05:53:42;;;;;;;1.92;1.35;;;21.70;57.40;;;;;;5126371;28;20488;-45
2021/05/31 05:56:21;;;;;;;1.70;1.30;;;21.70;57.40;;;;;;5126375;28;20059;-42
2021/05/31 05:58:47;;;;;;;1.98;1.58;;;21.70;57.40;;;;;;5126542;28;20027;-44
2021/05/31 06:01:16;;;;;;;1.70;1.60;;;21.70;57.50;;;;;;5126755;28;20036;-42
2021/05/31 06:03:42;;;;;;;2.20;1.60;;;21.70;57.50;;;;;;5126176;28;20284;-43
2021/05/31 06:06:08;;;;;;;1.85;1.58;;;21.60;57.50;;;;;;5125135;28;20020;-42
2021/05/31 06:08:36;;;;;;;1.83;1.55;;;21.60;57.50;;;;;;5126500;27;20023;-42
2021/05/31 06:11:03;;;;;;;1.95;1.50;;;21.60;57.60;;;;;;5126471;28;20019;-42
2021/05/31 06:13:29;;;;;;;1.67;1.55;;;21.60;57.60;;;;;;5125845;28;20031;-42
2021/05/31 06:15:59;;;;;;;1.88;1.70;;;21.60;57.60;;;;;;5124737;28;20495;-42
2021/05/31 06:18:26;;;;;;;2.25;1.70;;;21.50;57.60;;;;;;5126248;28;20042;-42
2021/05/31 06:20:52;;;;;;;2.03;1.63;;;21.50;57.70;;;;;;5126045;28;20027;-42
2021/05/31 06:23:18;;;;;;;1.67;1.37;;;21.50;57.80;;;;;;5125756;28;20024;-43
2021/05/31 06:25:45;;;;;;;1.88;1.67;;;21.50;57.80;;;;;;5126099;28;20035;-42
2021/05/31 06:28:11;;;;;;;3.25;1.65;;;21.50;57.70;;;;;;5125809;28;20034;-42
2021/05/31 06:30:37;;;;;;;1.63;1.35;;;21.50;57.80;;;;;;5125956;28;20700;-42
2021/05/31 06:33:03;;;;;;;2.17;1.65;;;21.50;57.80;;;;;;5126048;28;20034;-43
2021/05/31 06:35:30;;;;;;;2.13;1.47;;;21.40;57.80;;;;;;5125851;28;20084;-42
2021/05/31 06:37:56;;;;;;;2.37;1.77;;;21.40;57.80;;;;;;5106861;28;20035;-43
2021/05/31 06:40:22;;;;;;;2.63;1.85;;;21.40;57.80;;;;;;5113826;28;20052;-42
2021/05/31 06:42:49;;;;;;;1.85;1.40;;;21.40;57.90;;;;;;5125904;28;20065;-42
2021/05/31 06:45:21;;;;;;;1.98;1.58;;;21.40;57.90;;;;;;5125665;28;20032;-42
2021/05/31 06:47:47;;;;;;;2.25;1.55;;;21.40;57.90;;;;;;5125430;28;20023;-43
2021/05/31 06:50:14;;;;;;;1.55;1.45;;;21.30;57.90;;;;;;5125579;28;20057;-43
2021/05/31 06:52:40;;;;;;;2.27;1.60;;;21.30;57.90;;;;;;5125722;28;20024;-42
2021/05/31 06:55:07;;;;;;;2.13;1.60;;;21.30;58.00;;;;;;5125280;28;20027;-43
2021/05/31 06:57:34;;;;;;;2.35;1.60;;;21.30;58.00;;;;;;5123886;28;20035;-42
2021/05/31 07:00:00;;;;;;;1.88;1.55;;;21.30;58.00;;;;;;5124837;28;20028;-44
2021/05/31 07:02:26;;;;;;;2.17;1.83;;;21.30;58.00;;;;;;5125336;28;20028;-42
2021/05/31 07:04:52;;;;;;;1.90;1.63;;;21.30;58.10;;;;;;5125074;28;20024;-42
2021/05/31 07:07:22;;;;;;;2.05;1.65;;;21.20;58.10;;;;;;5124688;28;20589;-43
2021/05/31 07:09:48;;;;;;;1.95;1.75;;;21.20;58.00;;;;;;5125223;28;20028;-42
2021/05/31 07:12:16;;;;;;;2.45;1.80;;;21.20;58.10;;;;;;5125087;28;20027;-43
2021/05/31 07:14:45;;;;;;;2.50;1.70;;;21.20;58.10;;;;;;5125000;28;20090;-42
2021/05/31 07:17:14;;;;;;;1.67;1.48;;;21.20;58.20;;;;;;5124923;28;20122;-43
2021/05/31 07:19:43;;;;;;;1.95;1.75;;;21.20;58.20;;;;;;5123527;28;20380;-43
2021/05/31 07:22:09;;;;;;;2.50;1.80;;;21.20;58.80;;;;;;5124927;28;20043;-43
2021/05/31 07:24:35;;;;;;;1.95;1.75;;;21.10;58.20;;;;;;5124715;28;20020;-44
2021/05/31 07:27:01;;;;;;;1.67;1.38;;;21.10;58.30;;;;;;5124949;28;20076;-46
2021/05/31 07:29:27;;;;;;;1.75;1.58;;;21.10;58.30;;;;;;5124451;28;20153;-43
2021/05/31 07:31:53;;;;;;;2.10;1.60;;;21.10;58.30;;;;;;5124762;28;20452;-45
2021/05/31 07:34:20;;;;;;;2.30;1.80;;;21.10;58.30;;;;;;5124692;28;20072;-44
2021/05/31 07:36:47;;;;;;;1.52;1.42;;;21.10;58.40;;;;;;5124168;28;20444;-43
2021/05/31 07:39:13;;;;;;;2.25;1.80;;;21.10;58.50;;;;;;5124334;28;20049;-44
2021/05/31 07:41:39;;;;;;;3.03;2.00;;;21.10;58.50;;;;;;5124660;28;20053;-44
2021/05/31 07:44:05;;;;;;;1.83;1.63;;;21.00;58.40;;;;;;5124182;28;20023;-42
2021/05/31 07:46:32;;;;;;;1.98;1.52;;;21.00;58.50;;;;;;5124546;28;20023;-43
2021/05/31 07:48:58;;;;;;;2.83;1.90;;;21.00;58.40;;;;;;5124307;28;20031;-43
2021/05/31 07:51:26;;;;;;;2.78;1.85;;;21.00;58.50;;;;;;5124047;28;20034;-44
2021/05/31 07:53:54;;;;;;;1.90;1.70;;;21.00;58.60;;;;;;5124096;28;20034;-43
2021/05/31 07:56:22;;;;;;;2.25;1.70;;;21.00;58.60;;;;;;5123051;28;20035;-43
2021/05/31 07:58:48;;;;;;;2.00;1.77;;;21.00;58.60;;;;;;5123691;28;20039;-43
2021/05/31 08:01:14;;;;;;;1.98;1.58;;;21.00;58.60;;;;;;5124168;28;20049;-42
2021/05/31 08:03:41;;;;;;;1.90;1.63;;;20.90;58.60;;;;;;5124026;28;20113;-46
2021/05/31 08:06:08;;;;;;;1.80;1.60;;;20.90;58.70;;;;;;5124115;28;20473;-42
2021/05/31 08:08:34;;;;;;;2.40;1.75;;;20.90;58.70;;;;;;5123866;28;20063;-43
2021/05/31 08:11:00;;;;;;;1.55;1.45;;;20.90;58.70;;;;;;5124211;28;20361;-42
2021/05/31 08:13:27;;;;;;;2.60;1.73;;;20.90;58.70;;;;;;5124013;28;20016;-42
2021/05/31 08:15:53;;;;;;;1.85;1.65;;;20.90;58.80;;;;;;5123104;28;20086;-42
2021/05/31 08:18:19;;;;;;;1.70;1.50;;;20.90;58.70;;;;;;5124090;28;20024;-46
2021/05/31 08:20:46;;;;;;;2.37;1.60;;;20.80;58.80;;;;;;5123376;28;20114;-44
2021/05/31 08:23:12;;;;;;;2.22;1.60;;;20.80;58.80;;;;;;5123742;28;20019;-44
2021/05/31 08:25:39;;;;;;;1.95;1.55;;;20.80;58.90;;;;;;5123934;28;20052;-42
2021/05/31 08:28:05;;;;;;;1.48;1.38;;;20.80;58.90;;;;;;5123783;28;20036;-43
2021/05/31 08:30:32;;;;;;;2.17;1.60;;;20.80;58.90;;;;;;5123324;28;20031;-42
2021/05/31 08:32:58;;;;;;;2.30;1.65;;;20.80;58.90;;;;;;5123707;28;20038;-43
2021/05/31 08:35:25;;;;;;;2.58;2.10;;;20.80;59.00;;;;;;5123749;28;20031;-43
2021/05/31 08:37:51;;;;;;;1.77;1.52;;;20.80;59.00;;;;;;5123816;28;20031;-43
2021/05/31 08:40:18;;;;;;;2.08;1.65;;;20.70;59.00;;;;;;5123013;28;20020;-44
2021/05/31 08:42:45;;;;;;;2.15;1.67;;;20.80;59.00;;;;;;5123593;28;20039;-42
2021/05/31 08:45:16;;;;;;;3.03;1.65;;;20.70;59.00;;;;;;5121996;28;20020;-42
2021/05/31 08:47:47;;;;;;;1.65;1.45;;;20.70;59.10;;;;;;5125114;28;20036;-43
2021/05/31 08:50:15;;;;;;;1.75;1.40;;;20.70;59.00;;;;;;5127247;28;20047;-42
2021/05/31 08:52:42;;;;;;;2.30;1.70;;;20.70;59.10;;;;;;5127792;28;20020;-42
2021/05/31 08:55:09;;;;;;;1.88;1.38;;;20.70;59.10;;;;;;5127573;28;20050;-42
2021/05/31 08:57:35;;;;;;;3.22;1.52;;;20.60;59.20;;;;;;5127586;28;20066;-43
2021/05/31 09:00:03;;;;;;;2.50;1.55;;;20.60;59.20;;;;;;5126074;28;20084;-45
2021/05/31 09:02:33;;;;;;;2.75;1.52;;;20.60;59.70;;;;;;5127509;28;20027;-43
2021/05/31 09:04:59;;;;;;;2.33;1.85;;;20.60;59.20;;;;;;5127719;28;20102;-43
2021/05/31 09:07:25;;;;;;;1.73;1.50;;;20.60;59.20;;;;;;5127413;28;20057;-43
2021/05/31 09:09:55;;;;;;;1.98;1.77;;;20.60;59.30;;;;;;5127287;28;20027;-42
2021/05/31 09:12:24;;;;;;;2.10;1.65;;;20.50;59.30;;;;;;5126163;28;20020;-44
2021/05/31 09:14:58;;;;;;;2.08;1.77;;;20.60;59.30;;;;;;5127381;28;20031;-42
2021/05/31 09:17:29;;;;;;;2.25;1.73;;;20.50;59.30;;;;;;5127615;27;20031;-44
2021/05/31 09:19:55;;;;;;;1.88;1.67;;;20.50;59.40;;;;;;5126761;28;20028;-43
2021/05/31 09:22:23;;;;;;;1.73;1.60;;;20.50;59.40;;;;;;5142910;27;20115;-43
2021/05/31 09:24:56;;;;;;;2.40;1.90;;;20.50;59.40;;;;;;5127008;28;20468;-44
2021/05/31 09:27:23;;;;;;;1.63;1.45;;;20.50;59.40;;;;;;5142371;27;20086;-43
2021/05/31 09:30:05;;;;;;;1.60;1.50;;;20.40;59.40;;;;;;5125358;28;20035;-42
2021/05/31 09:32:31;;;;;;;2.20;1.75;;;20.50;59.50;;;;;;5125711;28;20062;-42
2021/05/31 09:35:01;;;;;;;2.00;1.50;;;20.50;59.50;;;;;;5125714;28;20632;-43
2021/05/31 09:37:27;;;;;;;1.85;1.55;;;20.40;59.50;;;;;;5126783;28;20035;-42
2021/05/31 09:39:58;;;;;;;2.00;1.80;;;20.40;59.50;;;;;;5125511;28;20031;-43
2021/05/31 09:42:24;;;;;;;2.35;1.85;;;20.40;59.50;;;;;;5126772;28;20042;-43
2021/05/31 09:45:09;;;;;;;2.45;1.45;;;20.40;59.50;;;;;;5126629;28;20027;-43
2021/05/31 09:47:36;;;;;;;2.20;1.80;;;20.40;59.50;;;;;;5126455;28;20079;-43
2021/05/31 09:50:06;;;;;;;2.15;1.95;;;20.40;59.60;;;;;;5126446;28;20035;-43
2021/05/31 09:52:33;;;;;;;1.83;1.70;;;20.40;59.60;;;;;;5126607;28;20053;-44
2021/05/31 09:55:02;;;;;;;2.05;1.75;;;20.30;59.60;;;;;;5125075;28;20441;-44
2021/05/31 09:57:29;;;;;;;2.15;1.70;;;20.30;59.60;;;;;;5126510;28;20563;-43
2021/05/31 10:00:05;;;;;;;;;;;20.30;59.70;;;;;;5125005;28;20027;-43
2021/05/31 10:08:17;;;;;;;2.13;1.80;;;20.20;59.70;;;;;;5126273;28;20026;-42
2021/05/31 10:10:44;;;;;;;2.20;2.00;;;20.20;59.80;;;;;;5125585;28;20036;-42
2021/05/31 10:13:11;;;;;;;2.45;1.90;;;20.20;59.80;;;;;;5126174;28;20059;-43
2021/05/31 10:15:42;;;;;;;3.80;1.88;;;20.20;59.90;;;;;;5125768;28;20050;-44
2021/05/31 10:18:18;;;;;;;2.20;1.90;;;20.20;59.90;;;;;;5126237;28;20028;-44
2021/05/31 10:20:44;;;;;;;2.72;1.80;;;20.20;60.00;;;;;;5125812;28;20504;-43
2021/05/31 10:23:11;;;;;;;2.45;2.03;;;20.20;59.90;;;;;;5125872;28;20046;-43
2021/05/31 10:25:41;;;;;;;3.08;2.28;;;20.10;59.90;;;;;;5141682;27;20095;-43
2021/05/31 10:28:14;;;;;;;2.05;1.80;;;20.20;60.00;;;;;;5126072;28;20030;-42
2021/05/31 10:30:45;;;;;;;2.05;1.80;;;20.20;60.00;;;;;;5124276;28;20051;-43
2021/05/31 10:33:21;;;;;;;2.00;1.58;;;20.20;59.90;;;;;;5125607;28;20035;-43
2021/05/31 10:35:51;;;;;;;2.35;1.70;;;20.10;60.00;;;;;;5105291;28;20048;-44
2021/05/31 10:38:19;;;;;;;2.28;1.80;;;20.10;59.90;;;;;;5105255;28;20028;-44
2021/05/31 10:40:47;;;;;;;1.90;1.73;;;20.10;60.00;;;;;;5105017;28;20028;-42
2021/05/31 10:43:19;;;;;;;1.92;1.60;;;20.10;60.10;;;;;;5105419;28;20031;-43
2021/05/31 10:45:45;;;;;;;2.10;1.83;;;20.10;60.00;;;;;;5104860;28;20038;-44
2021/05/31 10:48:21;;;;;;;2.80;2.17;;;20.10;60.00;;;;;;5120866;28;20480;-43
2021/05/31 10:50:48;;;;;;;2.08;1.88;;;20.10;60.10;;;;;;5118405;28;20031;-42
2021/05/31 10:53:18;;;;;;;3.67;1.67;;;20.00;60.10;;;;;;5125109;28;20020;-43
2021/05/31 10:56:07;;;;;;;1.98;1.75;;;20.00;60.10;;;;;;5125357;28;20059;-42
2021/05/31 10:58:40;;;;;;;1.63;1.52;;;20.00;60.10;;;;;;5125153;28;20743;-43
2021/05/31 11:01:34;;;;;;;2.20;2.00;;;20.00;60.20;;;;;;5124813;28;20024;-44
2021/05/31 11:04:06;;;;;;;2.25;1.52;;;20.00;60.30;;;;;;5124750;28;20050;-42
2021/05/31 11:06:38;;;;;;;2.67;1.90;;;20.00;60.20;;;;;;5125085;28;20016;-43
2021/05/31 11:09:05;;;;;;;1.95;1.75;;;20.00;60.30;;;;;;5125068;28;20059;-42
2021/05/31 11:11:35;;;;;;;;;;;20.00;60.30;;;;;;5124441;27;20026;-43
2021/05/31 11:14:01;;;;;;;2.58;1.83;;;19.90;60.30;;;;;;5125044;28;19929;-42
2021/05/31 11:16:28;;;;;;;2.25;1.80;;;19.90;60.30;;;;;;5124952;28;20083;-42
2021/05/31 11:18:58;;;;;;;2.75;1.70;;;19.90;60.30;;;;;;5125105;28;20024;-42
2021/05/31 11:21:30;;;;;;;2.20;1.92;;;19.90;60.30;;;;;;5124702;28;20028;-44
2021/05/31 11:24:01;;;;;;;2.65;1.83;;;19.90;60.30;;;;;;5124700;28;20040;-43
2021/05/31 11:26:31;;;;;;;2.25;1.80;;;19.90;60.40;;;;;;5124796;28;20019;-43
2021/05/31 11:28:58;;;;;;;1.70;1.60;;;19.90;60.40;;;;;;5124725;27;20023;-43
2021/05/31 11:31:24;;;;;;;2.25;1.70;;;19.90;60.40;;;;;;5124417;28;20035;-42
2021/05/31 11:33:54;;;;;;;3.25;2.00;;;19.90;60.40;;;;;;5124766;28;20023;-42
2021/05/31 11:36:33;;;;;;;2.22;1.55;;;19.90;60.50;;;;;;5124303;28;20036;-43
2021/05/31 11:39:00;;;;;;;1.90;1.60;;;19.90;60.40;;;;;;5124651;28;20039;-42
2021/05/31 11:41:30;;;;;;;;;;;19.80;60.50;;;;;;5123167;28;20450;-43
2021/05/31 11:43:57;;;;;;;2.00;1.50;;;19.80;60.50;;;;;;5124458;28;19904;-43
2021/05/31 11:46:23;;;;;;;1.40;1.30;;;19.80;60.50;;;;;;5124379;28;20027;-42
2021/05/31 11:48:49;;;;;;;1.73;1.60;;;19.80;60.50;;;;;;5124328;28;20058;-42
2021/05/31 11:51:16;;;;;;;1.92;1.70;;;19.80;60.50;;;;;;5124046;28;20024;-42
2021/05/31 11:53:45;;;;;;;2.37;1.60;;;19.80;60.50;;;;;;5123870;28;20032;-43
2021/05/31 11:56:12;;;;;;;2.20;1.65;;;19.80;60.60;;;;;;5124266;28;20367;-43
2021/05/31 11:58:44;;;;;;;;;;;19.80;60.60;;;;;;5123427;28;20027;-43
2021/05/31 12:01:11;;;;;;;1.80;1.45;;;19.80;60.50;;;;;;5123921;28;19911;-42
2021/05/31 12:03:37;;;;;;;;;;;19.80;60.60;;;;;;5124154;28;20117;-44
2021/05/31 12:06:11;;;;;;;2.40;1.40;;;19.70;60.40;;;;;;5123966;28;20360;-45
2021/05/31 12:08:39;;;;;;;1.80;1.30;;;19.70;60.50;;;;;;5124041;28;20048;-43
2021/05/31 12:11:05;;;;;;;1.90;1.65;;;19.70;60.60;;;;;;5123965;28;20027;-42
2021/05/31 12:13:33;;;;;;;1.70;1.50;;;19.70;60.60;;;;;;5123918;28;20106;-42
2021/05/31 12:16:11;;;;;;;2.10;1.63;;;19.70;60.60;;;;;;5123650;28;20126;-42
2021/05/31 12:18:37;;;;;;;1.77;1.30;;;19.70;60.60;;;;;;5123809;28;20165;-44
2021/05/31 12:21:03;;;;;;;1.75;1.50;;;19.70;60.70;;;;;;5123658;28;20032;-43
2021/05/31 12:23:30;;;;;;;1.52;1.42;;;19.70;60.60;;;;;;5123415;28;20030;-43
2021/05/31 12:26:03;;;;;;;1.75;1.38;;;19.70;60.60;;;;;;5123770;28;20027;-42
2021/05/31 12:28:31;;;;;;;2.03;1.52;;;19.70;60.70;;;;;;5123701;28;20083;-42
2021/05/31 12:30:57;;;;;;;1.65;1.27;;;19.70;60.80;;;;;;5123354;28;20020;-42
2021/05/31 12:33:23;;;;;;;2.03;1.50;;;19.70;60.80;;;;;;5122829;28;20023;-42
2021/05/31 12:35:50;;;;;;;1.58;1.40;;;19.70;60.80;;;;;;5139398;27;20042;-42
2021/05/31 12:38:20;;;;;;;1.88;1.50;;;19.70;60.80;;;;;;5123689;28;20032;-42
2021/05/31 12:40:47;;;;;;;2.13;1.50;;;19.70;60.80;;;;;;5123625;28;20496;-42
2021/05/31 12:43:14;;;;;;;1.67;1.33;;;19.70;60.80;;;;;;5123370;28;20539;-44
2021/05/31 12:45:47;;;;;;;1.60;1.30;;;19.70;60.80;;;;;;5123343;28;20047;-42
2021/05/31 12:48:18;;;;;;;1.67;1.13;;;19.70;60.80;;;;;;5123558;28;20026;-45
2021/05/31 12:50:44;;;;;;;1.77;1.50;;;19.70;60.80;;;;;;5123347;28;20039;-42
2021/05/31 12:53:12;;;;;;;2.03;1.42;;;19.70;60.90;;;;;;5123207;28;20028;-44
2021/05/31 12:55:38;;;;;;;;;;;19.70;60.80;;;;;;5121002;28;20051;-42
2021/05/31 12:58:18;;;;;;;1.33;1.10;;;19.70;60.80;;;;;;5107725;28;19919;-43
2021/05/31 13:00:45;;;;;;;1.30;1.20;;;19.70;60.80;;;;;;5122900;28;20024;-42
2021/05/31 13:03:13;;;;;;;2.00;1.33;;;19.80;60.80;;;;;;5123117;28;20052;-43
2021/05/31 13:05:41;;;;;;;1.38;1.27;;;19.80;60.90;;;;;;5123381;28;20032;-42
2021/05/31 13:08:12;;;;;;;1.23;1.13;;;19.80;60.80;;;;;;5123218;28;20024;-44
2021/05/31 13:10:44;;;;;;;1.60;1.40;;;19.80;60.80;;;;;;5122120;28;20043;-43
2021/05/31 13:13:12;;;;;;;2.40;1.50;;;19.80;60.70;;;;;;5123090;28;20055;-43
2021/05/31 13:15:43;;;;;;;1.50;1.27;;;19.80;60.70;;;;;;5122991;28;20058;-43
2021/05/31 13:18:23;;;;;;;1.75;1.35;;;19.80;60.70;;;;;;5123346;28;20410;-42
2021/05/31 13:20:54;;;;;;;1.25;1.10;;;19.90;60.40;;;;;;5123275;28;20077;-42